sensor_id;sensor_type;location;lat;lon;timestamp;temperature;humidity
8459;DHT22;4266;48.816;9.154;2022-09-13T00:01:49;15.10;99.20
8459;DHT22;4266;48.816;9.154;2022-09-13T00:04:15;15.10;99.60
8459;DHT22;4266;48.816;9.154;2022-09-13T00:06:40;15.10;99.50
8459;DHT22;4266;48.816;9.154;2022-09-13T00:09:07;15.00;99.90
8459;DHT22;4266;48.816;9.154;2022-09-13T00:11:32;15.00;99.90
8459;DHT22;4266;48.816;9.154;2022-09-13T00:13:59;15.00;99.90
8459;DHT22;4266;48.816;9.154;2022-09-13T00:16:25;15.00;99.90
8459;DHT22;4266;48.816;9.154;2022-09-13T00:18:51;15.00;99.90
8459;DHT22;4266;48.816;9.154;2022-09-13T00:21:17;15.00;99.90
8459;DHT22;4266;48.816;9.154;2022-09-13T00:23:43;14.90;99.90
8459;DHT22;4266;48.816;9.154;2022-09-13T00:26:09;14.80;99.90
8459;DHT22;4266;48.816;9.154;2022-09-13T00:28:33;14.80;99.90
8459;DHT22;4266;48.816;9.154;2022-09-13T00:31:00;14.70;99.90
8459;DHT22;4266;48.816;9.154;2022-09-13T00:33:25;14.70;99.90
8459;DHT22;4266;48.816;9.154;2022-09-13T00:35:52;14.70;99.90
8459;DHT22;4266;48.816;9.154;2022-09-13T00:38:17;14.60;99.90
8459;DHT22;4266;48.816;9.154;2022-09-13T00:40:43;14.70;99.90
8459;DHT22;4266;48.816;9.154;2022-09-13T00:43:15;14.70;99.90
8459;DHT22;4266;48.816;9.154;2022-09-13T00:45:37;14.70;99.90
8459;DHT22;4266;48.816;9.154;2022-09-13T00:48:04;14.60;99.90
8459;DHT22;4266;48.816;9.154;2022-09-13T00:50:34;14.50;99.90
8459;DHT22;4266;48.816;9.154;2022-09-13T00:53:08;14.50;99.90
8459;DHT22;4266;48.816;9.154;2022-09-13T00:55:36;14.40;99.90
8459;DHT22;4266;48.816;9.154;2022-09-13T00:58:03;14.20;99.90
8459;DHT22;4266;48.816;9.154;2022-09-13T01:00:27;14.20;99.90
8459;DHT22;4266;48.816;9.154;2022-09-13T01:02:54;14.20;99.90
8459;DHT22;4266;48.816;9.154;2022-09-13T01:05:19;14.20;99.90
8459;DHT22;4266;48.816;9.154;2022-09-13T01:07:44;14.20;99.90
8459;DHT22;4266;48.816;9.154;2022-09-13T01:10:09;14.20;99.90
8459;DHT22;4266;48.816;9.154;2022-09-13T01:12:41;14.40;99.90
8459;DHT22;4266;48.816;9.154;2022-09-13T01:15:06;14.40;99.90
8459;DHT22;4266;48.816;9.154;2022-09-13T01:17:32;14.40;99.90
8459;DHT22;4266;48.816;9.154;2022-09-13T01:19:58;14.30;99.90
8459;DHT22;4266;48.816;9.154;2022-09-13T01:28:10;14.40;99.90
8459;DHT22;4266;48.816;9.154;2022-09-13T01:30:36;14.40;99.90
8459;DHT22;4266;48.816;9.154;2022-09-13T01:33:15;14.30;99.90
8459;DHT22;4266;48.816;9.154;2022-09-13T01:35:50;14.30;99.90
8459;DHT22;4266;48.816;9.154;2022-09-13T01:38:26;14.20;99.90
8459;DHT22;4266;48.816;9.154;2022-09-13T01:40:59;14.20;99.90
8459;DHT22;4266;48.816;9.154;2022-09-13T01:43:31;14.20;99.90
8459;DHT22;4266;48.816;9.154;2022-09-13T01:46:04;14.20;99.90
8459;DHT22;4266;48.816;9.154;2022-09-13T01:48:51;14.20;99.90
8459;DHT22;4266;48.816;9.154;2022-09-13T01:51:20;14.20;99.90
8459;DHT22;4266;48.816;9.154;2022-09-13T01:53:51;14.10;99.90
8459;DHT22;4266;48.816;9.154;2022-09-13T01:56:22;14.10;99.90
8459;DHT22;4266;48.816;9.154;2022-09-13T01:58:55;14.00;99.90
8459;DHT22;4266;48.816;9.154;2022-09-13T02:01:22;14.00;99.90
8459;DHT22;4266;48.816;9.154;2022-09-13T02:03:51;14.00;99.90
8459;DHT22;4266;48.816;9.154;2022-09-13T02:06:17;13.90;99.90
8459;DHT22;4266;48.816;9.154;2022-09-13T02:08:43;13.90;99.90
8459;DHT22;4266;48.816;9.154;2022-09-13T02:11:10;13.80;99.90
8459;DHT22;4266;48.816;9.154;2022-09-13T02:13:35;13.80;99.90
8459;DHT22;4266;48.816;9.154;2022-09-13T02:16:01;13.70;99.90
8459;DHT22;4266;48.816;9.154;2022-09-13T02:18:30;13.70;99.90
8459;DHT22;4266;48.816;9.154;2022-09-13T02:20:56;13.70;99.90
8459;DHT22;4266;48.816;9.154;2022-09-13T02:23:22;13.70;99.90
8459;DHT22;4266;48.816;9.154;2022-09-13T02:25:45;13.70;99.90
8459;DHT22;4266;48.816;9.154;2022-09-13T02:28:12;13.70;99.90
8459;DHT22;4266;48.816;9.154;2022-09-13T02:30:38;13.70;99.90
8459;DHT22;4266;48.816;9.154;2022-09-13T02:33:03;13.60;99.90
8459;DHT22;4266;48.816;9.154;2022-09-13T02:35:31;13.60;99.90
8459;DHT22;4266;48.816;9.154;2022-09-13T02:38:00;13.60;99.90
8459;DHT22;4266;48.816;9.154;2022-09-13T02:40:25;13.60;99.90
8459;DHT22;4266;48.816;9.154;2022-09-13T02:42:52;13.60;99.90
8459;DHT22;4266;48.816;9.154;2022-09-13T02:45:16;13.60;99.90
8459;DHT22;4266;48.816;9.154;2022-09-13T02:47:57;13.50;99.90
8459;DHT22;4266;48.816;9.154;2022-09-13T02:50:28;13.40;99.90
8459;DHT22;4266;48.816;9.154;2022-09-13T02:53:01;13.40;99.90
8459;DHT22;4266;48.816;9.154;2022-09-13T02:55:38;13.50;99.90
8459;DHT22;4266;48.816;9.154;2022-09-13T02:58:08;13.50;99.90
8459;DHT22;4266;48.816;9.154;2022-09-13T03:00:30;13.80;99.90
8459;DHT22;4266;48.816;9.154;2022-09-13T03:02:56;13.80;99.90
8459;DHT22;4266;48.816;9.154;2022-09-13T03:05:22;13.70;99.90
8459;DHT22;4266;48.816;9.154;2022-09-13T03:07:47;13.70;99.90
8459;DHT22;4266;48.816;9.154;2022-09-13T03:10:14;13.70;99.90
8459;DHT22;4266;48.816;9.154;2022-09-13T03:12:50;13.70;99.90
8459;DHT22;4266;48.816;9.154;2022-09-13T03:15:26;13.70;99.90
8459;DHT22;4266;48.816;9.154;2022-09-13T03:18:04;13.70;99.90
8459;DHT22;4266;48.816;9.154;2022-09-13T03:20:39;13.60;99.90
8459;DHT22;4266;48.816;9.154;2022-09-13T03:23:13;13.60;99.90
8459;DHT22;4266;48.816;9.154;2022-09-13T03:25:58;13.50;99.90
8459;DHT22;4266;48.816;9.154;2022-09-13T03:28:30;13.50;99.90
8459;DHT22;4266;48.816;9.154;2022-09-13T03:30:52;13.60;99.90
8459;DHT22;4266;48.816;9.154;2022-09-13T03:33:20;13.60;99.90
8459;DHT22;4266;48.816;9.154;2022-09-13T03:35:56;13.60;99.90
8459;DHT22;4266;48.816;9.154;2022-09-13T03:38:21;13.60;99.90
8459;DHT22;4266;48.816;9.154;2022-09-13T03:40:48;13.50;99.90
8459;DHT22;4266;48.816;9.154;2022-09-13T03:43:13;13.50;99.90
8459;DHT22;4266;48.816;9.154;2022-09-13T03:45:41;13.40;99.90
8459;DHT22;4266;48.816;9.154;2022-09-13T03:48:05;13.40;99.90
8459;DHT22;4266;48.816;9.154;2022-09-13T03:50:31;13.30;99.90
8459;DHT22;4266;48.816;9.154;2022-09-13T03:52:59;13.30;99.90
8459;DHT22;4266;48.816;9.154;2022-09-13T03:55:24;13.30;99.90
8459;DHT22;4266;48.816;9.154;2022-09-13T03:57:50;13.30;99.90
8459;DHT22;4266;48.816;9.154;2022-09-13T04:00:16;13.30;99.90
8459;DHT22;4266;48.816;9.154;2022-09-13T04:02:42;13.30;99.90
8459;DHT22;4266;48.816;9.154;2022-09-13T04:05:08;13.30;99.90
8459;DHT22;4266;48.816;9.154;2022-09-13T04:07:34;13.20;99.90
8459;DHT22;4266;48.816;9.154;2022-09-13T04:10:07;13.30;99.90
8459;DHT22;4266;48.816;9.154;2022-09-13T04:12:33;13.20;99.90
8459;DHT22;4266;48.816;9.154;2022-09-13T04:14:58;13.20;99.90
8459;DHT22;4266;48.816;9.154;2022-09-13T04:17:24;13.20;99.90
8459;DHT22;4266;48.816;9.154;2022-09-13T04:19:51;13.10;99.90
8459;DHT22;4266;48.816;9.154;2022-09-13T04:22:16;13.20;99.90
8459;DHT22;4266;48.816;9.154;2022-09-13T04:24:43;13.20;99.90
8459;DHT22;4266;48.816;9.154;2022-09-13T04:27:08;13.10;99.90
8459;DHT22;4266;48.816;9.154;2022-09-13T04:29:34;13.20;99.90
8459;DHT22;4266;48.816;9.154;2022-09-13T04:32:00;13.20;99.90
8459;DHT22;4266;48.816;9.154;2022-09-13T04:34:26;13.30;99.90
8459;DHT22;4266;48.816;9.154;2022-09-13T04:36:52;13.20;99.90
8459;DHT22;4266;48.816;9.154;2022-09-13T04:39:19;13.20;99.90
8459;DHT22;4266;48.816;9.154;2022-09-13T04:41:44;13.20;99.90
8459;DHT22;4266;48.816;9.154;2022-09-13T04:44:10;13.10;99.90
8459;DHT22;4266;48.816;9.154;2022-09-13T04:46:35;13.20;99.90
8459;DHT22;4266;48.816;9.154;2022-09-13T04:49:01;13.30;99.90
8459;DHT22;4266;48.816;9.154;2022-09-13T04:51:28;13.20;99.90
8459;DHT22;4266;48.816;9.154;2022-09-13T04:53:54;13.10;99.90
8459;DHT22;4266;48.816;9.154;2022-09-13T04:56:19;13.10;99.90
8459;DHT22;4266;48.816;9.154;2022-09-13T04:58:45;13.20;99.90
8459;DHT22;4266;48.816;9.154;2022-09-13T05:01:10;13.30;99.90
8459;DHT22;4266;48.816;9.154;2022-09-13T05:03:36;13.30;99.90
8459;DHT22;4266;48.816;9.154;2022-09-13T05:06:05;13.40;99.90
8459;DHT22;4266;48.816;9.154;2022-09-13T05:08:31;13.50;99.90
8459;DHT22;4266;48.816;9.154;2022-09-13T05:10:57;13.50;99.90
8459;DHT22;4266;48.816;9.154;2022-09-13T05:13:24;13.70;99.90
8459;DHT22;4266;48.816;9.154;2022-09-13T05:15:49;13.60;99.90
8459;DHT22;4266;48.816;9.154;2022-09-13T05:18:15;13.90;99.90
8459;DHT22;4266;48.816;9.154;2022-09-13T05:20:41;13.90;99.90
8459;DHT22;4266;48.816;9.154;2022-09-13T05:23:07;14.20;99.90
8459;DHT22;4266;48.816;9.154;2022-09-13T05:25:33;15.20;99.90
8459;DHT22;4266;48.816;9.154;2022-09-13T05:27:59;15.20;99.90
8459;DHT22;4266;48.816;9.154;2022-09-13T05:30:25;15.60;99.90
8459;DHT22;4266;48.816;9.154;2022-09-13T05:32:51;15.60;99.90
8459;DHT22;4266;48.816;9.154;2022-09-13T05:35:16;15.30;99.90
8459;DHT22;4266;48.816;9.154;2022-09-13T05:37:42;15.00;99.90
8459;DHT22;4266;48.816;9.154;2022-09-13T05:40:09;14.90;99.90
8459;DHT22;4266;48.816;9.154;2022-09-13T05:42:34;14.90;99.90
8459;DHT22;4266;48.816;9.154;2022-09-13T05:45:00;14.60;99.90
8459;DHT22;4266;48.816;9.154;2022-09-13T05:47:26;14.40;99.90
8459;DHT22;4266;48.816;9.154;2022-09-13T05:49:51;14.40;99.90
8459;DHT22;4266;48.816;9.154;2022-09-13T05:52:17;14.40;99.90
8459;DHT22;4266;48.816;9.154;2022-09-13T05:54:43;14.50;99.90
8459;DHT22;4266;48.816;9.154;2022-09-13T05:57:08;14.60;99.90
8459;DHT22;4266;48.816;9.154;2022-09-13T05:59:36;14.70;99.90
8459;DHT22;4266;48.816;9.154;2022-09-13T06:02:01;14.70;99.90
8459;DHT22;4266;48.816;9.154;2022-09-13T06:04:27;14.70;99.90
8459;DHT22;4266;48.816;9.154;2022-09-13T06:06:53;14.80;99.90
8459;DHT22;4266;48.816;9.154;2022-09-13T06:09:18;14.90;99.90
8459;DHT22;4266;48.816;9.154;2022-09-13T06:11:44;15.20;99.90
8459;DHT22;4266;48.816;9.154;2022-09-13T06:14:10;15.50;99.90
8459;DHT22;4266;48.816;9.154;2022-09-13T06:16:35;15.70;99.90
8459;DHT22;4266;48.816;9.154;2022-09-13T06:19:01;15.80;99.90
8459;DHT22;4266;48.816;9.154;2022-09-13T06:21:28;15.90;99.90
8459;DHT22;4266;48.816;9.154;2022-09-13T06:23:54;15.90;99.90
8459;DHT22;4266;48.816;9.154;2022-09-13T06:26:20;15.90;99.90
8459;DHT22;4266;48.816;9.154;2022-09-13T06:28:47;15.90;99.90
8459;DHT22;4266;48.816;9.154;2022-09-13T06:31:12;15.90;99.90
8459;DHT22;4266;48.816;9.154;2022-09-13T06:33:38;15.80;99.90
8459;DHT22;4266;48.816;9.154;2022-09-13T06:36:04;16.00;99.90
8459;DHT22;4266;48.816;9.154;2022-09-13T06:38:29;16.00;99.90
8459;DHT22;4266;48.816;9.154;2022-09-13T06:41:03;15.90;99.90
8459;DHT22;4266;48.816;9.154;2022-09-13T06:43:29;17.60;99.90
8459;DHT22;4266;48.816;9.154;2022-09-13T06:45:58;17.50;99.90
8459;DHT22;4266;48.816;9.154;2022-09-13T06:48:20;18.10;99.00
8459;DHT22;4266;48.816;9.154;2022-09-13T06:50:45;18.30;99.00
8459;DHT22;4266;48.816;9.154;2022-09-13T06:53:11;19.00;97.60
8459;DHT22;4266;48.816;9.154;2022-09-13T06:55:37;19.20;97.20
8459;DHT22;4266;48.816;9.154;2022-09-13T06:58:03;19.30;97.20
8459;DHT22;4266;48.816;9.154;2022-09-13T07:00:29;19.30;97.20
8459;DHT22;4266;48.816;9.154;2022-09-13T07:02:55;19.50;96.30
8459;DHT22;4266;48.816;9.154;2022-09-13T07:05:21;19.50;96.30
8459;DHT22;4266;48.816;9.154;2022-09-13T07:07:46;19.70;96.40
8459;DHT22;4266;48.816;9.154;2022-09-13T07:10:12;20.30;96.20
8459;DHT22;4266;48.816;9.154;2022-09-13T07:12:40;20.60;95.90
8459;DHT22;4266;48.816;9.154;2022-09-13T07:15:05;20.60;95.70
8459;DHT22;4266;48.816;9.154;2022-09-13T07:17:31;20.60;95.90
8459;DHT22;4266;48.816;9.154;2022-09-13T07:19:57;20.70;95.70
8459;DHT22;4266;48.816;9.154;2022-09-13T07:22:23;20.70;95.70
8459;DHT22;4266;48.816;9.154;2022-09-13T07:24:49;20.90;95.20
8459;DHT22;4266;48.816;9.154;2022-09-13T07:27:14;20.40;95.80
8459;DHT22;4266;48.816;9.154;2022-09-13T07:29:40;20.30;95.80
8459;DHT22;4266;48.816;9.154;2022-09-13T07:32:06;20.50;95.20
8459;DHT22;4266;48.816;9.154;2022-09-13T07:34:33;20.10;95.80
8459;DHT22;4266;48.816;9.154;2022-09-13T07:36:58;20.10;95.80
8459;DHT22;4266;48.816;9.154;2022-09-13T07:39:25;21.10;95.10
8459;DHT22;4266;48.816;9.154;2022-09-13T07:41:51;21.10;95.10
8459;DHT22;4266;48.816;9.154;2022-09-13T07:44:16;20.70;95.10
8459;DHT22;4266;48.816;9.154;2022-09-13T07:46:42;20.80;95.60
8459;DHT22;4266;48.816;9.154;2022-09-13T07:49:08;21.00;95.00
8459;DHT22;4266;48.816;9.154;2022-09-13T07:51:35;22.40;95.30
8459;DHT22;4266;48.816;9.154;2022-09-13T07:54:01;22.30;95.20
8459;DHT22;4266;48.816;9.154;2022-09-13T07:56:27;23.50;94.70
8459;DHT22;4266;48.816;9.154;2022-09-13T07:58:52;24.20;94.30
8459;DHT22;4266;48.816;9.154;2022-09-13T08:01:22;24.00;93.20
8459;DHT22;4266;48.816;9.154;2022-09-13T08:03:50;23.50;92.70
8459;DHT22;4266;48.816;9.154;2022-09-13T08:06:14;23.50;92.80
8459;DHT22;4266;48.816;9.154;2022-09-13T08:08:41;23.20;93.20
8459;DHT22;4266;48.816;9.154;2022-09-13T08:11:06;23.10;93.20
8459;DHT22;4266;48.816;9.154;2022-09-13T08:13:33;23.50;93.00
8459;DHT22;4266;48.816;9.154;2022-09-13T08:16:00;23.50;93.00
8459;DHT22;4266;48.816;9.154;2022-09-13T08:18:25;23.70;92.70
8459;DHT22;4266;48.816;9.154;2022-09-13T08:20:51;23.30;92.90
8459;DHT22;4266;48.816;9.154;2022-09-13T08:23:16;23.20;92.90
8459;DHT22;4266;48.816;9.154;2022-09-13T08:25:42;23.10;93.10
8459;DHT22;4266;48.816;9.154;2022-09-13T08:28:08;23.20;92.80
8459;DHT22;4266;48.816;9.154;2022-09-13T08:30:34;23.00;93.00
8459;DHT22;4266;48.816;9.154;2022-09-13T08:33:00;23.00;93.00
8459;DHT22;4266;48.816;9.154;2022-09-13T08:35:25;23.80;93.00
8459;DHT22;4266;48.816;9.154;2022-09-13T08:37:51;23.50;92.70
8459;DHT22;4266;48.816;9.154;2022-09-13T08:40:18;24.30;93.40
8459;DHT22;4266;48.816;9.154;2022-09-13T08:42:48;24.70;92.40
8459;DHT22;4266;48.816;9.154;2022-09-13T08:45:11;24.70;92.40
8459;DHT22;4266;48.816;9.154;2022-09-13T08:47:42;24.60;92.30
8459;DHT22;4266;48.816;9.154;2022-09-13T08:50:11;24.60;92.10
8459;DHT22;4266;48.816;9.154;2022-09-13T08:55:24;24.90;92.50
8459;DHT22;4266;48.816;9.154;2022-09-13T08:57:52;25.40;92.50
8459;DHT22;4266;48.816;9.154;2022-09-13T09:00:19;25.00;91.80
8459;DHT22;4266;48.816;9.154;2022-09-13T09:05:44;25.20;91.50
8459;DHT22;4266;48.816;9.154;2022-09-13T09:08:11;25.20;91.60
8459;DHT22;4266;48.816;9.154;2022-09-13T09:10:38;26.00;91.40
8459;DHT22;4266;48.816;9.154;2022-09-13T09:13:04;25.70;91.40
8459;DHT22;4266;48.816;9.154;2022-09-13T09:15:28;25.70;90.90
8459;DHT22;4266;48.816;9.154;2022-09-13T09:17:55;25.80;91.20
8459;DHT22;4266;48.816;9.154;2022-09-13T09:20:23;25.80;91.20
8459;DHT22;4266;48.816;9.154;2022-09-13T09:22:47;26.40;90.60
8459;DHT22;4266;48.816;9.154;2022-09-13T09:25:13;26.40;90.30
8459;DHT22;4266;48.816;9.154;2022-09-13T09:27:39;26.30;91.20
8459;DHT22;4266;48.816;9.154;2022-09-13T09:30:05;26.10;90.00
8459;DHT22;4266;48.816;9.154;2022-09-13T09:37:58;27.20;88.30
8459;DHT22;4266;48.816;9.154;2022-09-13T09:40:16;27.20;88.30
8459;DHT22;4266;48.816;9.154;2022-09-13T09:42:42;26.90;88.50
8459;DHT22;4266;48.816;9.154;2022-09-13T09:45:27;27.20;89.00
8459;DHT22;4266;48.816;9.154;2022-09-13T09:47:53;27.20;89.70
8459;DHT22;4266;48.816;9.154;2022-09-13T09:50:21;27.20;89.70
8459;DHT22;4266;48.816;9.154;2022-09-13T09:52:52;26.90;88.20
8459;DHT22;4266;48.816;9.154;2022-09-13T09:55:31;26.80;89.30
8459;DHT22;4266;48.816;9.154;2022-09-13T09:57:59;26.30;88.60
8459;DHT22;4266;48.816;9.154;2022-09-13T10:00:28;26.20;88.40
8459;DHT22;4266;48.816;9.154;2022-09-13T10:02:54;26.30;89.50
8459;DHT22;4266;48.816;9.154;2022-09-13T10:05:19;26.50;89.30
8459;DHT22;4266;48.816;9.154;2022-09-13T10:07:50;26.50;89.30
8459;DHT22;4266;48.816;9.154;2022-09-13T10:10:20;26.90;87.80
8459;DHT22;4266;48.816;9.154;2022-09-13T10:12:47;26.90;87.10
8459;DHT22;4266;48.816;9.154;2022-09-13T10:15:15;27.20;86.70
8459;DHT22;4266;48.816;9.154;2022-09-13T10:17:40;27.60;84.70
8459;DHT22;4266;48.816;9.154;2022-09-13T10:20:24;27.80;83.70
8459;DHT22;4266;48.816;9.154;2022-09-13T10:23:08;28.00;83.60
8459;DHT22;4266;48.816;9.154;2022-09-13T10:25:21;28.50;82.90
8459;DHT22;4266;48.816;9.154;2022-09-13T10:27:47;28.80;81.40
8459;DHT22;4266;48.816;9.154;2022-09-13T10:30:31;28.70;81.30
8459;DHT22;4266;48.816;9.154;2022-09-13T10:32:57;29.00;81.40
8459;DHT22;4266;48.816;9.154;2022-09-13T10:35:22;29.80;80.00
8459;DHT22;4266;48.816;9.154;2022-09-13T10:37:48;30.00;79.70
8459;DHT22;4266;48.816;9.154;2022-09-13T10:40:20;29.60;78.60
8459;DHT22;4266;48.816;9.154;2022-09-13T10:42:49;29.60;78.60
8459;DHT22;4266;48.816;9.154;2022-09-13T10:45:11;30.00;76.50
8459;DHT22;4266;48.816;9.154;2022-09-13T10:47:37;29.90;77.50
8459;DHT22;4266;48.816;9.154;2022-09-13T10:50:26;29.60;75.50
8459;DHT22;4266;48.816;9.154;2022-09-13T10:52:52;30.00;76.20
8459;DHT22;4266;48.816;9.154;2022-09-13T10:55:34;29.90;68.80
8459;DHT22;4266;48.816;9.154;2022-09-13T10:58:16;30.10;69.50
8459;DHT22;4266;48.816;9.154;2022-09-13T11:03:41;30.20;68.60
8459;DHT22;4266;48.816;9.154;2022-09-13T11:07:13;30.70;66.60
8459;DHT22;4266;48.816;9.154;2022-09-13T11:11:39;30.50;66.80
8459;DHT22;4266;48.816;9.154;2022-09-13T11:16:42;30.10;65.60
8459;DHT22;4266;48.816;9.154;2022-09-13T11:22:08;29.90;67.50
8459;DHT22;4266;48.816;9.154;2022-09-13T11:24:32;29.90;70.00
8459;DHT22;4266;48.816;9.154;2022-09-13T11:27:03;29.70;67.50
8459;DHT22;4266;48.816;9.154;2022-09-13T11:29:36;30.00;69.30
8459;DHT22;4266;48.816;9.154;2022-09-13T11:32:03;30.00;65.50
8459;DHT22;4266;48.816;9.154;2022-09-13T11:34:33;30.20;65.20
8459;DHT22;4266;48.816;9.154;2022-09-13T11:37:08;30.00;64.30
8459;DHT22;4266;48.816;9.154;2022-09-13T11:39:31;30.10;65.40
8459;DHT22;4266;48.816;9.154;2022-09-13T11:43:18;30.00;64.40
8459;DHT22;4266;48.816;9.154;2022-09-13T11:50:27;29.60;64.30
8459;DHT22;4266;48.816;9.154;2022-09-13T11:53:34;29.50;64.10
8459;DHT22;4266;48.816;9.154;2022-09-13T11:55:38;29.90;65.80
8459;DHT22;4266;48.816;9.154;2022-09-13T11:58:04;30.00;66.10
8459;DHT22;4266;48.816;9.154;2022-09-13T12:00:44;30.30;67.50
8459;DHT22;4266;48.816;9.154;2022-09-13T12:03:17;30.20;66.80
8459;DHT22;4266;48.816;9.154;2022-09-13T12:05:47;30.30;64.80
8459;DHT22;4266;48.816;9.154;2022-09-13T12:08:19;30.10;65.30
8459;DHT22;4266;48.816;9.154;2022-09-13T12:10:51;30.60;66.40
8459;DHT22;4266;48.816;9.154;2022-09-13T12:13:24;30.60;62.90
8459;DHT22;4266;48.816;9.154;2022-09-13T12:15:52;30.80;61.70
8459;DHT22;4266;48.816;9.154;2022-09-13T12:18:20;31.00;62.90
8459;DHT22;4266;48.816;9.154;2022-09-13T12:20:51;30.50;61.90
8459;DHT22;4266;48.816;9.154;2022-09-13T12:23:36;31.00;62.00
8459;DHT22;4266;48.816;9.154;2022-09-13T12:26:04;31.00;62.10
8459;DHT22;4266;48.816;9.154;2022-09-13T12:28:33;30.40;63.10
8459;DHT22;4266;48.816;9.154;2022-09-13T12:31:09;30.10;62.70
8459;DHT22;4266;48.816;9.154;2022-09-13T12:33:37;29.90;61.80
8459;DHT22;4266;48.816;9.154;2022-09-13T12:37:26;30.20;63.80
8459;DHT22;4266;48.816;9.154;2022-09-13T12:41:57;30.70;63.40
8459;DHT22;4266;48.816;9.154;2022-09-13T12:44:30;31.20;63.80
8459;DHT22;4266;48.816;9.154;2022-09-13T12:47:10;31.10;62.70
8459;DHT22;4266;48.816;9.154;2022-09-13T12:51:01;30.90;62.30
8459;DHT22;4266;48.816;9.154;2022-09-13T12:52:43;30.90;62.20
8459;DHT22;4266;48.816;9.154;2022-09-13T12:55:27;31.10;59.70
8459;DHT22;4266;48.816;9.154;2022-09-13T12:58:09;31.00;59.60
8459;DHT22;4266;48.816;9.154;2022-09-13T13:00:32;30.60;60.10
8459;DHT22;4266;48.816;9.154;2022-09-13T13:03:15;30.40;59.20
8459;DHT22;4266;48.816;9.154;2022-09-13T13:05:42;30.00;59.60
8459;DHT22;4266;48.816;9.154;2022-09-13T13:08:24;30.30;62.00
8459;DHT22;4266;48.816;9.154;2022-09-13T13:10:59;30.10;61.00
8459;DHT22;4266;48.816;9.154;2022-09-13T13:13:33;30.30;59.80
8459;DHT22;4266;48.816;9.154;2022-09-13T13:15:59;30.50;61.60
8459;DHT22;4266;48.816;9.154;2022-09-13T13:18:44;30.70;59.40
8459;DHT22;4266;48.816;9.154;2022-09-13T13:21:25;30.90;58.40
8459;DHT22;4266;48.816;9.154;2022-09-13T13:24:36;30.90;58.50
8459;DHT22;4266;48.816;9.154;2022-09-13T13:29:14;30.40;58.00
8459;DHT22;4266;48.816;9.154;2022-09-13T13:31:41;29.70;58.90
8459;DHT22;4266;48.816;9.154;2022-09-13T13:34:26;29.70;58.90
8459;DHT22;4266;48.816;9.154;2022-09-13T13:36:57;30.00;58.50
8459;DHT22;4266;48.816;9.154;2022-09-13T13:39:38;30.20;57.10
8459;DHT22;4266;48.816;9.154;2022-09-13T13:45:14;29.80;56.40
8459;DHT22;4266;48.816;9.154;2022-09-13T13:47:51;30.10;56.90
8459;DHT22;4266;48.816;9.154;2022-09-13T13:50:16;30.10;57.00
8459;DHT22;4266;48.816;9.154;2022-09-13T13:52:52;30.30;55.50
8459;DHT22;4266;48.816;9.154;2022-09-13T13:58:11;29.60;55.60
8459;DHT22;4266;48.816;9.154;2022-09-13T14:00:35;29.60;55.70
8459;DHT22;4266;48.816;9.154;2022-09-13T14:03:08;30.00;56.10
8459;DHT22;4266;48.816;9.154;2022-09-13T14:05:50;30.20;55.40
8459;DHT22;4266;48.816;9.154;2022-09-13T14:08:36;29.20;56.20
8459;DHT22;4266;48.816;9.154;2022-09-13T14:13:58;29.50;55.60
8459;DHT22;4266;48.816;9.154;2022-09-13T14:16:49;30.60;54.90
8459;DHT22;4266;48.816;9.154;2022-09-13T14:19:18;30.60;54.90
8459;DHT22;4266;48.816;9.154;2022-09-13T14:21:43;30.70;53.40
8459;DHT22;4266;48.816;9.154;2022-09-13T14:24:19;31.00;53.30
8459;DHT22;4266;48.816;9.154;2022-09-13T14:26:45;30.70;55.30
8459;DHT22;4266;48.816;9.154;2022-09-13T14:29:11;30.70;55.30
8459;DHT22;4266;48.816;9.154;2022-09-13T14:31:37;30.30;55.50
8459;DHT22;4266;48.816;9.154;2022-09-13T14:34:04;30.80;56.20
8459;DHT22;4266;48.816;9.154;2022-09-13T14:36:29;30.80;56.20
8459;DHT22;4266;48.816;9.154;2022-09-13T14:38:56;30.50;55.20
8459;DHT22;4266;48.816;9.154;2022-09-13T14:41:22;30.80;55.50
8459;DHT22;4266;48.816;9.154;2022-09-13T14:43:47;31.00;53.60
8459;DHT22;4266;48.816;9.154;2022-09-13T14:46:17;30.90;54.20
8459;DHT22;4266;48.816;9.154;2022-09-13T14:48:44;30.50;53.70
8459;DHT22;4266;48.816;9.154;2022-09-13T14:51:15;29.90;53.90
8459;DHT22;4266;48.816;9.154;2022-09-13T14:53:42;30.40;55.30
8459;DHT22;4266;48.816;9.154;2022-09-13T14:56:12;30.50;54.30
8459;DHT22;4266;48.816;9.154;2022-09-13T14:58:38;30.40;54.30
8459;DHT22;4266;48.816;9.154;2022-09-13T15:01:03;29.90;53.30
8459;DHT22;4266;48.816;9.154;2022-09-13T15:03:28;29.90;54.10
8459;DHT22;4266;48.816;9.154;2022-09-13T15:05:55;29.80;54.10
8459;DHT22;4266;48.816;9.154;2022-09-13T15:08:39;29.60;52.80
8459;DHT22;4266;48.816;9.154;2022-09-13T15:10:52;29.50;53.70
8459;DHT22;4266;48.816;9.154;2022-09-13T15:13:18;29.20;53.90
8459;DHT22;4266;48.816;9.154;2022-09-13T15:15:44;29.00;53.60
8459;DHT22;4266;48.816;9.154;2022-09-13T15:18:24;29.30;53.30
8459;DHT22;4266;48.816;9.154;2022-09-13T15:20:52;29.00;53.80
8459;DHT22;4266;48.816;9.154;2022-09-13T15:23:33;29.10;52.70
8459;DHT22;4266;48.816;9.154;2022-09-13T15:26:08;28.90;53.00
8459;DHT22;4266;48.816;9.154;2022-09-13T15:28:51;28.30;53.50
8459;DHT22;4266;48.816;9.154;2022-09-13T15:31:20;28.50;53.60
8459;DHT22;4266;48.816;9.154;2022-09-13T15:33:45;28.60;53.50
8459;DHT22;4266;48.816;9.154;2022-09-13T15:36:22;28.70;53.40
8459;DHT22;4266;48.816;9.154;2022-09-13T15:41:19;28.50;52.40
8459;DHT22;4266;48.816;9.154;2022-09-13T15:43:47;28.80;52.00
8459;DHT22;4266;48.816;9.154;2022-09-13T15:46:13;28.60;52.60
8459;DHT22;4266;48.816;9.154;2022-09-13T15:48:38;28.40;52.10
8459;DHT22;4266;48.816;9.154;2022-09-13T15:51:08;28.50;51.80
8459;DHT22;4266;48.816;9.154;2022-09-13T15:53:34;28.40;52.10
8459;DHT22;4266;48.816;9.154;2022-09-13T15:55:59;28.40;52.10
8459;DHT22;4266;48.816;9.154;2022-09-13T15:58:25;28.20;52.30
8459;DHT22;4266;48.816;9.154;2022-09-13T16:00:51;28.20;52.30
8459;DHT22;4266;48.816;9.154;2022-09-13T16:03:16;28.10;52.20
8459;DHT22;4266;48.816;9.154;2022-09-13T16:05:42;28.10;52.70
8459;DHT22;4266;48.816;9.154;2022-09-13T16:08:09;28.00;52.60
8459;DHT22;4266;48.816;9.154;2022-09-13T16:10:35;27.80;53.60
8459;DHT22;4266;48.816;9.154;2022-09-13T16:13:00;27.80;53.60
8459;DHT22;4266;48.816;9.154;2022-09-13T16:15:27;27.70;54.60
8459;DHT22;4266;48.816;9.154;2022-09-13T16:17:53;27.60;54.50
8459;DHT22;4266;48.816;9.154;2022-09-13T16:20:18;27.50;55.20
8459;DHT22;4266;48.816;9.154;2022-09-13T16:22:44;27.40;55.60
8459;DHT22;4266;48.816;9.154;2022-09-13T16:25:11;27.30;55.90
8459;DHT22;4266;48.816;9.154;2022-09-13T16:27:36;27.10;56.30
8459;DHT22;4266;48.816;9.154;2022-09-13T16:30:02;27.30;56.80
8459;DHT22;4266;48.816;9.154;2022-09-13T16:32:28;27.30;56.90
8459;DHT22;4266;48.816;9.154;2022-09-13T16:34:54;27.10;57.30
8459;DHT22;4266;48.816;9.154;2022-09-13T16:37:19;27.20;57.30
8459;DHT22;4266;48.816;9.154;2022-09-13T16:39:46;26.90;57.90
8459;DHT22;4266;48.816;9.154;2022-09-13T16:42:13;26.90;58.00
8459;DHT22;4266;48.816;9.154;2022-09-13T16:44:38;26.90;58.00
8459;DHT22;4266;48.816;9.154;2022-09-13T16:47:04;26.70;58.30
8459;DHT22;4266;48.816;9.154;2022-09-13T16:49:30;26.70;58.20
8459;DHT22;4266;48.816;9.154;2022-09-13T16:51:56;26.80;58.10
8459;DHT22;4266;48.816;9.154;2022-09-13T16:54:25;26.70;58.50
8459;DHT22;4266;48.816;9.154;2022-09-13T16:56:50;26.70;58.50
8459;DHT22;4266;48.816;9.154;2022-09-13T16:59:16;26.90;58.70
8459;DHT22;4266;48.816;9.154;2022-09-13T17:01:42;26.80;58.70